Time;durP1;ratioP1;P1;durP2;ratioP2;P2;SDS_P1;SDS_P2;PMS_P1;PMS_P2;Temp;Humidity;BMP_temperature;BMP_pressure;BME280_temperature;BME280_humidity;BME280_pressure;Samples;Min_cycle;Max_cycle;Signal;HPM_P1;HPM_P2
2021/03/16 00:00:40;;;;;;;0.43;0.43;;;14.40;66.80;;;;;;4195546;28;20079;-46
2021/03/16 00:03:19;;;;;;;0.00;0.00;;;14.40;66.80;;;;;;4195494;28;20048;-48
2021/03/16 00:05:51;;;;;;;0.82;0.82;;;14.40;66.80;;;;;;4193769;28;20040;-50
2021/03/16 00:08:12;;;;;;;0.00;0.00;;;14.40;66.80;;;;;;4195562;28;20053;-48
2021/03/16 00:10:33;;;;;;;1.55;1.02;;;14.40;66.80;;;;;;4195452;28;20635;-48
2021/03/16 00:12:54;;;;;;;0.50;0.50;;;14.40;67.00;;;;;;4195567;28;20530;-46
2021/03/16 00:15:15;;;;;;;0.08;0.08;;;14.30;67.00;;;;;;4195392;28;20415;-46
2021/03/16 00:17:36;;;;;;;0.10;0.10;;;14.30;67.10;;;;;;4179041;28;20063;-47
2021/03/16 00:19:58;;;;;;;0.25;0.25;;;14.30;67.30;;;;;;4178899;28;20061;-51
2021/03/16 00:22:19;;;;;;;0.00;0.00;;;14.30;67.30;;;;;;4178991;28;20511;-49
2021/03/16 00:24:41;;;;;;;0.10;0.10;;;14.30;67.50;;;;;;4187299;28;20049;-48
2021/03/16 00:27:02;;;;;;;0.08;0.08;;;14.30;67.40;;;;;;4194797;28;20052;-47
2021/03/16 00:29:23;;;;;;;0.50;0.50;;;14.20;67.40;;;;;;4195478;28;20080;-47
2021/03/16 00:31:44;;;;;;;0.10;0.10;;;14.20;67.40;;;;;;4195435;28;20048;-47
2021/03/16 00:34:05;;;;;;;;;;;14.30;67.50;;;;;;4195524;28;20053;-49
2021/03/16 00:36:26;;;;;;;1.83;1.30;;;14.20;67.50;;;;;;4195033;28;20007;-48
2021/03/16 00:38:48;;;;;;;0.00;0.00;;;14.20;67.50;;;;;;4195373;28;20049;-48
2021/03/16 00:41:09;;;;;;;0.00;0.00;;;14.20;67.70;;;;;;4195088;28;20408;-47
2021/03/16 00:43:29;;;;;;;0.00;0.00;;;14.20;67.70;;;;;;4197177;28;20141;-46
2021/03/16 00:45:50;;;;;;;0.45;0.45;;;14.20;67.60;;;;;;4198191;28;20057;-46
2021/03/16 00:48:14;;;;;;;0.00;0.00;;;14.20;67.80;;;;;;4198310;28;20056;-47
2021/03/16 00:50:36;;;;;;;0.10;0.10;;;14.10;67.90;;;;;;4198016;28;20064;-48
2021/03/16 00:52:57;;;;;;;0.00;0.00;;;14.10;68.10;;;;;;4198311;28;20355;-46
2021/03/16 00:55:29;;;;;;;;;;;14.10;68.20;;;;;;4198492;28;20061;-47
2021/03/16 00:57:49;;;;;;;0.00;0.00;;;14.10;68.30;;;;;;4198210;28;19978;-47
2021/03/16 01:00:11;;;;;;;0.00;0.00;;;14.10;68.20;;;;;;4198110;28;20048;-47
2021/03/16 01:02:32;;;;;;;0.20;0.20;;;14.10;68.20;;;;;;4197731;28;20137;-47
2021/03/16 01:04:53;;;;;;;0.00;0.00;;;14.10;68.30;;;;;;4197912;28;20056;-48
2021/03/16 01:07:14;;;;;;;0.00;0.00;;;14.10;68.40;;;;;;4198017;28;20056;-47
2021/03/16 01:09:35;;;;;;;0.05;0.05;;;14.00;68.20;;;;;;4198172;28;20052;-50
2021/03/16 01:11:56;;;;;;;0.82;0.80;;;14.00;68.40;;;;;;4197611;28;20174;-52
2021/03/16 01:14:18;;;;;;;0.43;0.43;;;14.00;68.50;;;;;;4197690;28;20098;-49
2021/03/16 01:16:39;;;;;;;0.00;0.00;;;14.00;68.50;;;;;;4197936;28;20056;-46
2021/03/16 01:19:00;;;;;;;0.82;0.82;;;14.00;68.70;;;;;;4198042;28;20522;-46
2021/03/16 01:21:20;;;;;;;0.03;0.03;;;14.00;68.60;;;;;;4197378;28;20057;-46
2021/03/16 01:23:41;;;;;;;0.90;0.90;;;14.00;68.60;;;;;;4197832;28;20803;-45
2021/03/16 01:26:03;;;;;;;0.00;0.00;;;14.00;68.70;;;;;;4197574;28;20129;-46
2021/03/16 01:28:24;;;;;;;;;;;14.00;68.60;;;;;;4198107;28;20056;-48
2021/03/16 01:30:45;;;;;;;0.10;0.10;;;14.00;68.60;;;;;;4197626;28;19920;-46
2021/03/16 01:33:06;;;;;;;0.00;0.00;;;14.00;68.70;;;;;;4197854;28;20052;-52
2021/03/16 01:35:27;;;;;;;0.00;0.00;;;14.00;68.80;;;;;;4197427;28;20094;-47
2021/03/16 01:37:50;;;;;;;0.00;0.00;;;13.90;68.80;;;;;;4197468;28;20791;-46
2021/03/16 01:40:14;;;;;;;0.00;0.00;;;13.90;68.90;;;;;;4197553;28;20049;-47
2021/03/16 01:42:35;;;;;;;0.00;0.00;;;13.90;68.90;;;;;;4197611;28;20064;-47
2021/03/16 01:44:57;;;;;;;0.00;0.00;;;13.90;69.00;;;;;;4197648;28;20052;-47
2021/03/16 01:47:18;;;;;;;;;;;13.90;68.90;;;;;;4198015;28;20052;-46
2021/03/16 01:49:39;;;;;;;0.00;0.00;;;13.90;69.00;;;;;;4197416;28;19920;-45
2021/03/16 01:52:02;;;;;;;0.00;0.00;;;13.90;69.00;;;;;;4180863;28;20063;-46
2021/03/16 01:54:23;;;;;;;1.95;1.23;;;13.80;69.00;;;;;;4194057;28;20495;-46
2021/03/16 01:56:46;;;;;;;0.00;0.00;;;13.80;69.20;;;;;;4196936;28;20127;-49
2021/03/16 01:59:27;;;;;;;0.10;0.10;;;13.80;69.40;;;;;;4197217;28;20291;-46
2021/03/16 02:02:07;;;;;;;0.05;0.05;;;13.80;69.40;;;;;;4180626;28;20487;-46
2021/03/16 02:04:47;;;;;;;0.00;0.00;;;13.80;69.50;;;;;;4180689;28;20411;-45
2021/03/16 02:07:34;;;;;;;0.00;0.00;;;13.80;69.50;;;;;;4180667;28;20052;-46
2021/03/16 02:10:18;;;;;;;0.00;0.00;;;13.80;69.70;;;;;;4184766;28;20182;-47
2021/03/16 02:13:01;;;;;;;0.00;0.00;;;13.80;69.70;;;;;;4196777;28;20053;-45
2021/03/16 02:15:43;;;;;;;0.10;0.10;;;13.80;69.70;;;;;;4196877;28;20053;-45
2021/03/16 02:18:29;;;;;;;0.10;0.10;;;13.80;69.70;;;;;;4196612;28;20427;-48
2021/03/16 02:21:12;;;;;;;0.00;0.00;;;13.80;69.70;;;;;;4180407;28;20511;-48
2021/03/16 02:24:13;;;;;;;0.00;0.00;;;13.80;69.80;;;;;;4180139;28;20086;-47
2021/03/16 02:27:09;;;;;;;0.00;0.00;;;13.80;69.90;;;;;;4180109;28;20311;-47
2021/03/16 02:29:53;;;;;;;0.20;0.20;;;13.70;69.90;;;;;;4180207;28;20061;-47
2021/03/16 02:32:34;;;;;;;0.55;0.55;;;13.80;70.00;;;;;;4196436;28;20508;-47
2021/03/16 02:35:16;;;;;;;0.00;0.00;;;13.70;70.00;;;;;;4196143;28;20147;-47
2021/03/16 02:37:57;;;;;;;0.00;0.00;;;13.70;70.10;;;;;;4196553;28;20495;-46
2021/03/16 02:40:39;;;;;;;0.00;0.00;;;13.70;70.20;;;;;;4195878;28;20044;-49
2021/03/16 02:43:20;;;;;;;0.00;0.00;;;13.70;70.20;;;;;;4196366;28;20060;-46
2021/03/16 02:46:03;;;;;;;19.88;0.98;;;13.70;70.30;;;;;;4195837;28;20066;-46
2021/03/16 02:48:44;;;;;;;0.00;0.00;;;13.70;70.40;;;;;;4196409;28;20052;-46
2021/03/16 02:51:25;;;;;;;0.00;0.00;;;13.70;70.50;;;;;;4196235;28;20064;-50
2021/03/16 02:54:06;;;;;;;0.00;0.00;;;13.70;70.60;;;;;;4196297;28;20423;-47
2021/03/16 02:56:48;;;;;;;0.28;0.28;;;13.70;70.60;;;;;;4179663;28;20480;-50
2021/03/16 02:59:29;;;;;;;0.00;0.00;;;13.70;70.60;;;;;;4179834;28;20060;-49
2021/03/16 03:02:11;;;;;;;0.00;0.00;;;13.70;70.70;;;;;;4179686;28;20056;-49
2021/03/16 03:04:53;;;;;;;0.10;0.10;;;13.60;70.70;;;;;;4181622;28;20518;-49
2021/03/16 03:07:33;;;;;;;0.08;0.08;;;13.70;70.80;;;;;;4196160;28;20134;-47
2021/03/16 03:10:13;;;;;;;0.05;0.05;;;13.70;70.90;;;;;;4195484;28;20495;-48
2021/03/16 03:12:53;;;;;;;0.00;0.00;;;13.70;70.90;;;;;;4195884;28;20044;-48
2021/03/16 03:15:33;;;;;;;0.00;0.00;;;13.60;70.90;;;;;;4195482;28;20075;-47
2021/03/16 03:18:13;;;;;;;0.00;0.00;;;13.70;71.80;;;;;;4195660;28;20152;-50
2021/03/16 03:20:53;;;;;;;0.00;0.00;;;13.70;71.00;;;;;;4195910;28;20074;-49
2021/03/16 03:23:38;;;;;;;0.00;0.00;;;13.60;71.00;;;;;;4195807;28;20052;-50
2021/03/16 03:26:22;;;;;;;0.00;0.00;;;13.60;71.00;;;;;;4195470;28;20064;-50
2021/03/16 03:29:02;;;;;;;2.30;1.38;;;13.60;71.10;;;;;;4195844;28;20051;-48
2021/03/16 03:31:44;;;;;;;0.00;0.00;;;13.60;71.10;;;;;;4195374;28;20130;-49
2021/03/16 03:34:27;;;;;;;0.00;0.00;;;13.60;71.10;;;;;;4195300;28;20059;-45
2021/03/16 03:37:08;;;;;;;1.13;1.10;;;13.60;71.20;;;;;;4195646;28;20075;-48
2021/03/16 03:39:49;;;;;;;0.00;0.00;;;13.60;71.20;;;;;;4195577;28;20131;-45
2021/03/16 03:42:30;;;;;;;0.00;0.00;;;13.60;71.30;;;;;;4195700;28;20131;-46
2021/03/16 03:45:12;;;;;;;0.00;0.00;;;13.50;71.40;;;;;;4195633;28;20048;-48
2021/03/16 03:47:54;;;;;;;0.00;0.00;;;13.60;71.50;;;;;;4195716;28;20451;-50
2021/03/16 03:50:34;;;;;;;0.00;0.00;;;13.50;71.50;;;;;;4195408;28;20049;-47
2021/03/16 03:53:15;;;;;;;0.00;0.00;;;13.50;71.50;;;;;;4195544;28;20048;-47
2021/03/16 03:55:55;;;;;;;0.00;0.00;;;13.50;71.60;;;;;;4194942;28;20053;-46
2021/03/16 03:58:38;;;;;;;0.00;0.00;;;13.50;71.70;;;;;;4195548;28;20056;-48
2021/03/16 04:01:18;;;;;;;0.30;0.30;;;13.50;71.70;;;;;;4195098;28;20044;-45
2021/03/16 04:04:00;;;;;;;0.00;0.00;;;13.50;71.70;;;;;;4195281;28;20057;-46
2021/03/16 04:06:42;;;;;;;0.00;0.00;;;13.50;71.70;;;;;;4194961;28;20055;-46
2021/03/16 04:09:21;;;;;;;;;;;13.50;71.80;;;;;;4195707;28;20383;-45
2021/03/16 04:12:01;;;;;;;0.00;0.00;;;13.50;71.90;;;;;;4195034;28;19927;-46
2021/03/16 04:14:41;;;;;;;0.00;0.00;;;13.50;71.80;;;;;;4195219;28;20561;-49
2021/03/16 04:17:22;;;;;;;0.28;0.28;;;13.50;71.90;;;;;;4195264;28;20109;-48
2021/03/16 04:20:04;;;;;;;0.00;0.00;;;13.50;72.00;;;;;;4198562;28;20051;-47
2021/03/16 04:22:45;;;;;;;0.00;0.00;;;13.50;72.00;;;;;;4198369;28;20491;-50
2021/03/16 04:25:25;;;;;;;;;;;13.50;72.00;;;;;;4198607;28;20486;-47
2021/03/16 04:28:09;;;;;;;1.20;0.45;;;13.50;72.20;;;;;;4198712;28;19991;-46
2021/03/16 04:30:51;;;;;;;0.00;0.00;;;13.50;72.10;;;;;;4198629;28;20052;-46
2021/03/16 04:33:30;;;;;;;0.00;0.00;;;13.50;72.10;;;;;;4198378;28;20238;-47
2021/03/16 04:36:10;;;;;;;0.10;0.10;;;13.50;72.10;;;;;;4197923;28;20063;-45
2021/03/16 04:38:51;;;;;;;0.38;0.38;;;13.50;72.20;;;;;;4198359;28;20053;-46
2021/03/16 04:41:31;;;;;;;0.00;0.00;;;13.50;72.30;;;;;;4181898;28;20521;-49
2021/03/16 04:44:10;;;;;;;0.20;0.20;;;13.50;72.40;;;;;;4182004;28;20133;-46
2021/03/16 04:46:50;;;;;;;0.03;0.03;;;13.50;72.50;;;;;;4181653;28;20071;-48
2021/03/16 04:49:30;;;;;;;0.00;0.00;;;13.50;72.50;;;;;;4181875;28;20075;-49
2021/03/16 04:52:10;;;;;;;0.00;0.00;;;13.50;72.40;;;;;;4181891;28;20049;-46
2021/03/16 04:54:50;;;;;;;0.00;0.00;;;13.50;72.40;;;;;;4187952;28;20644;-52
2021/03/16 04:57:30;;;;;;;0.00;0.00;;;13.50;72.50;;;;;;4198359;28;20121;-52
2021/03/16 05:00:10;;;;;;;0.00;0.00;;;13.50;72.50;;;;;;4197947;28;20048;-45
2021/03/16 05:02:50;;;;;;;0.00;0.00;;;13.50;72.50;;;;;;4198088;28;20754;-47
2021/03/16 05:05:30;;;;;;;0.00;0.00;;;13.50;72.60;;;;;;4197841;28;20083;-50
2021/03/16 05:08:10;;;;;;;0.00;0.00;;;13.50;72.60;;;;;;4198034;28;20041;-47
2021/03/16 05:10:50;;;;;;;0.00;0.00;;;13.40;72.60;;;;;;4197815;28;20106;-46
2021/03/16 05:13:31;;;;;;;0.20;0.20;;;13.40;72.60;;;;;;4197988;28;20044;-50
2021/03/16 05:16:11;;;;;;;0.00;0.00;;;13.40;72.70;;;;;;4181434;28;20450;-48
2021/03/16 05:18:51;;;;;;;0.00;0.00;;;13.40;72.60;;;;;;4181446;28;20412;-49
2021/03/16 05:21:31;;;;;;;0.00;0.00;;;13.40;72.60;;;;;;4181280;28;20049;-46
2021/03/16 05:24:11;;;;;;;0.00;0.00;;;13.40;72.70;;;;;;4183220;28;20060;-46
2021/03/16 05:26:52;;;;;;;0.00;0.00;;;13.40;72.70;;;;;;4197635;28;20052;-48
2021/03/16 05:29:31;;;;;;;0.73;0.73;;;13.40;72.70;;;;;;4197155;28;20078;-47
2021/03/16 05:32:11;;;;;;;0.00;0.00;;;13.40;72.70;;;;;;4197725;28;20567;-52
2021/03/16 05:34:51;;;;;;;0.00;0.00;;;13.40;72.80;;;;;;4196984;28;20067;-50
2021/03/16 05:37:32;;;;;;;0.00;0.00;;;13.40;72.80;;;;;;4197679;28;20487;-50
2021/03/16 05:40:13;;;;;;;0.00;0.00;;;13.40;72.70;;;;;;4197227;28;20055;-49
2021/03/16 05:42:55;;;;;;;0.00;0.00;;;13.40;72.80;;;;;;4181183;28;20904;-47
2021/03/16 05:45:34;;;;;;;0.30;0.30;;;13.40;72.80;;;;;;4193799;28;20415;-47
2021/03/16 05:48:15;;;;;;;0.00;0.00;;;13.40;72.80;;;;;;4197630;28;20541;-46
2021/03/16 05:50:55;;;;;;;0.13;0.13;;;13.40;72.80;;;;;;4197408;28;20553;-49
2021/03/16 05:53:35;;;;;;;0.00;0.00;;;13.40;72.80;;;;;;4197240;28;20053;-46
2021/03/16 05:56:15;;;;;;;0.00;0.00;;;13.40;72.90;;;;;;4180758;28;20626;-46
2021/03/16 05:58:57;;;;;;;0.00;0.00;;;13.40;72.90;;;;;;4183823;28;20048;-46
2021/03/16 06:01:37;;;;;;;0.00;0.00;;;13.40;72.90;;;;;;4197307;28;20048;-46
2021/03/16 06:04:16;;;;;;;0.00;0.00;;;13.30;72.90;;;;;;4196950;28;20041;-45
2021/03/16 06:06:57;;;;;;;0.77;0.77;;;13.40;73.00;;;;;;4197187;28;20049;-48
2021/03/16 06:09:37;;;;;;;0.10;0.10;;;13.30;72.90;;;;;;4197044;28;20059;-49
2021/03/16 06:12:27;;;;;;;0.00;0.00;;;13.40;73.00;;;;;;4197105;28;20998;-48
2021/03/16 06:15:12;;;;;;;0.00;0.00;;;13.40;73.00;;;;;;4196403;28;20522;-45
2021/03/16 06:17:52;;;;;;;0.08;0.08;;;13.40;73.10;;;;;;4197019;28;20801;-47
2021/03/16 06:20:33;;;;;;;0.20;0.20;;;13.40;73.10;;;;;;4196948;28;20422;-48
2021/03/16 06:23:14;;;;;;;0.00;0.00;;;13.40;73.30;;;;;;4197034;28;20056;-45
2021/03/16 06:25:53;;;;;;;0.40;0.40;;;13.40;73.30;;;;;;4180287;28;20052;-47
2021/03/16 06:28:37;;;;;;;0.00;0.00;;;13.40;73.50;;;;;;4183877;28;20072;-45
2021/03/16 06:31:24;;;;;;;0.03;0.03;;;13.40;74.20;;;;;;4189077;28;20048;-45
2021/03/16 06:34:05;;;;;;;1.08;1.08;;;13.50;75.50;;;;;;4196414;28;20517;-45
2021/03/16 06:36:48;;;;;;;0.00;0.00;;;13.50;75.00;;;;;;4195726;28;20226;-47
2021/03/16 06:39:28;;;;;;;0.75;0.65;;;13.50;74.50;;;;;;4192005;28;20128;-46
2021/03/16 06:42:20;;;;;;;0.00;0.00;;;13.50;74.20;;;;;;4196138;28;20265;-45
2021/03/16 06:45:04;;;;;;;0.35;0.35;;;13.50;74.20;;;;;;4196584;28;20136;-47
2021/03/16 06:47:45;;;;;;;2.75;1.33;;;13.50;74.10;;;;;;4195913;28;20063;-49
2021/03/16 06:50:28;;;;;;;0.35;0.35;;;13.50;74.10;;;;;;4195944;28;20556;-49
2021/03/16 06:53:13;;;;;;;0.00;0.00;;;13.40;74.00;;;;;;4196077;28;20052;-45
2021/03/16 06:55:55;;;;;;;1.45;1.35;;;13.40;74.10;;;;;;4195634;28;20209;-44
2021/03/16 06:58:36;;;;;;;0.32;0.32;;;13.40;74.10;;;;;;4195545;28;20052;-45
2021/03/16 07:01:16;;;;;;;1.10;1.10;;;13.40;74.30;;;;;;4196091;28;20048;-44
2021/03/16 07:03:59;;;;;;;0.00;0.00;;;13.40;74.20;;;;;;4196112;28;20180;-50
2021/03/16 07:06:40;;;;;;;0.63;0.63;;;13.40;74.10;;;;;;4185870;28;20127;-44
2021/03/16 07:09:21;;;;;;;0.00;0.00;;;13.40;74.10;;;;;;4196087;28;20088;-44
2021/03/16 07:12:03;;;;;;;0.17;0.17;;;13.40;74.00;;;;;;4195874;28;20045;-46
2021/03/16 07:14:44;;;;;;;0.00;0.00;;;13.40;74.00;;;;;;4196074;28;20059;-44
2021/03/16 07:17:24;;;;;;;;;;;13.30;74.00;;;;;;4196679;28;20581;-44
2021/03/16 07:20:07;;;;;;;17.73;0.90;;;13.30;74.00;;;;;;4196227;28;19921;-45
2021/03/16 07:22:51;;;;;;;0.00;0.00;;;13.40;73.90;;;;;;4196187;28;20410;-44
2021/03/16 07:25:32;;;;;;;2.85;1.48;;;13.40;73.70;;;;;;4195923;28;20122;-45
2021/03/16 07:28:12;;;;;;;0.00;0.00;;;13.40;73.70;;;;;;4195908;28;20049;-46
2021/03/16 07:30:52;;;;;;;0.20;0.20;;;13.40;73.70;;;;;;4195917;28;20045;-44
2021/03/16 07:33:33;;;;;;;2.97;1.38;;;13.40;73.70;;;;;;4195579;28;20048;-44
2021/03/16 07:36:14;;;;;;;0.00;0.00;;;13.30;73.50;;;;;;4195198;28;20050;-44
2021/03/16 07:38:54;;;;;;;0.00;0.00;;;13.30;73.50;;;;;;4195569;28;20173;-44
2021/03/16 07:41:37;;;;;;;0.00;0.00;;;13.30;73.40;;;;;;4195686;28;20045;-45
2021/03/16 07:44:18;;;;;;;0.88;0.73;;;13.40;73.50;;;;;;4186889;28;20055;-48
2021/03/16 07:47:01;;;;;;;1.65;1.38;;;13.40;73.50;;;;;;4195526;28;20129;-44
2021/03/16 07:49:42;;;;;;;0.00;0.00;;;13.40;73.40;;;;;;4195526;28;20049;-44
2021/03/16 07:52:24;;;;;;;0.00;0.00;;;13.40;73.20;;;;;;4195448;28;20506;-44
2021/03/16 07:55:05;;;;;;;0.00;0.00;;;13.50;73.10;;;;;;4195467;28;20209;-45
2021/03/16 07:57:45;;;;;;;0.47;0.35;;;13.50;73.00;;;;;;4194472;28;20063;-44
2021/03/16 08:00:30;;;;;;;0.00;0.00;;;13.50;72.90;;;;;;4195682;28;20101;-46
2021/03/16 08:03:10;;;;;;;0.20;0.20;;;13.40;72.80;;;;;;4195421;28;20075;-47
2021/03/16 08:05:51;;;;;;;0.00;0.00;;;13.40;72.80;;;;;;4195501;28;20147;-45
2021/03/16 08:08:40;;;;;;;0.00;0.00;;;13.40;72.80;;;;;;4188154;28;20048;-44
2021/03/16 08:11:21;;;;;;;0.20;0.20;;;13.40;72.70;;;;;;4195636;28;20048;-44
2021/03/16 08:14:02;;;;;;;0.40;0.40;;;13.40;72.70;;;;;;4195206;28;20044;-45
2021/03/16 08:16:44;;;;;;;1.00;1.00;;;13.40;72.50;;;;;;4195194;28;20052;-46
2021/03/16 08:19:37;;;;;;;2.17;1.98;;;13.30;72.60;;;;;;4194433;28;20053;-45
2021/03/16 08:22:20;;;;;;;1.85;1.75;;;13.30;72.70;;;;;;4195162;28;20095;-44
2021/03/16 08:25:02;;;;;;;1.27;1.20;;;13.30;72.70;;;;;;4194933;28;20052;-44
2021/03/16 08:27:49;;;;;;;0.90;0.85;;;13.30;72.80;;;;;;4181972;28;20048;-46
2021/03/16 08:30:29;;;;;;;0.10;0.10;;;13.30;72.90;;;;;;4195351;28;20139;-44
2021/03/16 08:33:14;;;;;;;0.00;0.00;;;13.40;73.00;;;;;;4195357;28;20137;-44
2021/03/16 08:35:56;;;;;;;0.52;0.47;;;13.40;72.80;;;;;;4195093;28;20064;-50
2021/03/16 08:38:36;;;;;;;0.10;0.10;;;13.40;72.80;;;;;;4178766;28;20055;-50
2021/03/16 08:41:17;;;;;;;0.00;0.00;;;13.50;72.80;;;;;;4178847;28;20427;-44
2021/03/16 08:43:57;;;;;;;0.00;0.00;;;13.50;72.60;;;;;;4184317;28;20126;-46
2021/03/16 08:46:38;;;;;;;1.15;1.08;;;13.50;72.60;;;;;;4195407;28;20059;-46
2021/03/16 08:49:19;;;;;;;0.00;0.00;;;13.60;72.50;;;;;;4195635;28;20055;-44
2021/03/16 08:51:59;;;;;;;0.98;0.80;;;13.60;72.40;;;;;;4195475;28;20767;-44
2021/03/16 08:54:39;;;;;;;0.00;0.00;;;13.60;72.20;;;;;;4195193;28;20156;-44
2021/03/16 08:57:20;;;;;;;0.00;0.00;;;13.60;72.10;;;;;;4195244;28;20048;-49
2021/03/16 09:00:01;;;;;;;0.00;0.00;;;13.60;71.80;;;;;;4195161;28;20055;-45
2021/03/16 09:02:41;;;;;;;0.80;0.80;;;13.60;71.70;;;;;;4195300;28;20165;-45
2021/03/16 09:05:26;;;;;;;10.98;1.55;;;13.60;71.60;;;;;;4197380;28;20048;-44
2021/03/16 09:08:06;;;;;;;0.00;0.00;;;13.60;71.50;;;;;;4197924;28;20411;-45
2021/03/16 09:10:48;;;;;;;0.00;0.00;;;13.60;71.40;;;;;;4197959;28;20075;-46
2021/03/16 09:13:30;;;;;;;0.00;0.00;;;13.50;71.30;;;;;;4197825;28;20057;-43
2021/03/16 09:16:18;;;;;;;;;;;13.50;71.30;;;;;;4197833;28;20060;-43
2021/03/16 09:18:59;;;;;;;0.00;0.00;;;13.50;71.20;;;;;;4190646;28;19924;-43
2021/03/16 09:21:49;;;;;;;0.00;0.00;;;13.50;71.20;;;;;;4197880;28;20083;-42
2021/03/16 09:24:31;;;;;;;0.00;0.00;;;13.60;71.30;;;;;;4181320;28;20778;-43
2021/03/16 09:27:14;;;;;;;0.00;0.00;;;13.60;71.20;;;;;;4181143;28;20064;-43
2021/03/16 09:29:54;;;;;;;0.00;0.00;;;13.60;72.00;;;;;;4181148;28;20662;-44
2021/03/16 09:32:35;;;;;;;0.00;0.00;;;13.60;71.10;;;;;;4181111;28;20081;-44
2021/03/16 09:35:19;;;;;;;0.00;0.00;;;13.60;71.00;;;;;;4190363;28;20193;-44
2021/03/16 09:37:59;;;;;;;0.00;0.00;;;13.60;70.70;;;;;;4197573;28;20052;-44
2021/03/16 09:40:42;;;;;;;0.00;0.00;;;13.60;70.40;;;;;;4197226;28;20165;-44
2021/03/16 09:43:20;;;;;;;0.00;0.00;;;13.60;70.20;;;;;;4197534;28;20494;-44
2021/03/16 09:45:51;;;;;;;0.00;0.00;;;13.60;70.00;;;;;;4195980;28;20122;-45
2021/03/16 09:48:18;;;;;;;0.00;0.00;;;13.60;69.90;;;;;;4197426;28;20052;-44
2021/03/16 09:50:39;;;;;;;1.02;1.02;;;13.60;69.80;;;;;;4197140;28;20049;-44
2021/03/16 09:53:01;;;;;;;0.00;0.00;;;13.60;70.50;;;;;;4197368;28;20057;-45
2021/03/16 09:55:24;;;;;;;1.13;0.82;;;13.60;69.50;;;;;;4197213;28;20056;-44
2021/03/16 09:57:48;;;;;;;0.00;0.00;;;13.60;69.60;;;;;;4197286;28;20060;-47
2021/03/16 10:00:11;;;;;;;0.00;0.00;;;13.60;69.60;;;;;;4196929;28;20052;-43
2021/03/16 10:02:37;;;;;;;0.00;0.00;;;13.60;69.60;;;;;;4197101;28;20121;-45
2021/03/16 10:05:05;;;;;;;0.00;0.00;;;13.60;69.60;;;;;;4197105;28;20057;-43
2021/03/16 10:07:27;;;;;;;0.00;0.00;;;13.60;69.50;;;;;;4180598;28;20059;-44
2021/03/16 10:09:48;;;;;;;0.10;0.10;;;13.60;69.30;;;;;;4180537;28;20053;-43
2021/03/16 10:12:17;;;;;;;0.00;0.00;;;13.60;69.10;;;;;;4180572;28;20045;-43
2021/03/16 10:14:42;;;;;;;0.00;0.00;;;13.60;69.20;;;;;;4180171;28;20049;-44
2021/03/16 10:17:03;;;;;;;0.00;0.00;;;13.60;69.20;;;;;;4180083;28;20052;-44
2021/03/16 10:19:26;;;;;;;0.03;0.03;;;13.70;69.20;;;;;;4180453;28;20759;-45
2021/03/16 10:21:47;;;;;;;0.00;0.00;;;13.70;69.10;;;;;;4187332;28;20118;-45
2021/03/16 10:24:09;;;;;;;0.00;0.00;;;13.70;69.10;;;;;;4196732;28;20059;-44
2021/03/16 10:26:30;;;;;;;0.10;0.10;;;13.70;69.00;;;;;;4196634;28;20105;-44
2021/03/16 10:28:52;;;;;;;0.00;0.00;;;13.70;68.80;;;;;;4196809;28;20083;-49
2021/03/16 10:31:14;;;;;;;0.00;0.00;;;13.70;68.90;;;;;;4196559;28;20152;-52
2021/03/16 10:33:36;;;;;;;0.00;0.00;;;13.70;69.00;;;;;;4195638;28;20060;-44
2021/03/16 10:35:58;;;;;;;0.10;0.10;;;13.70;69.10;;;;;;4196206;28;20118;-44
2021/03/16 10:38:27;;;;;;;1.00;0.80;;;13.70;69.00;;;;;;4196446;28;20068;-43
2021/03/16 10:40:48;;;;;;;0.00;0.00;;;13.70;68.90;;;;;;4196538;28;20053;-44
2021/03/16 10:43:10;;;;;;;0.00;0.00;;;13.70;68.70;;;;;;4196452;28;20049;-45
2021/03/16 10:45:31;;;;;;;0.50;0.50;;;13.70;68.80;;;;;;4196446;28;20139;-44
2021/03/16 10:47:53;;;;;;;0.00;0.00;;;13.60;68.80;;;;;;4196537;28;20135;-43
2021/03/16 10:50:14;;;;;;;;;;;13.60;68.80;;;;;;4196891;28;20056;-44
2021/03/16 10:52:36;;;;;;;0.03;0.03;;;13.60;68.90;;;;;;4196423;28;20552;-45
2021/03/16 10:54:57;;;;;;;0.00;0.00;;;13.60;68.90;;;;;;4195569;28;20132;-44
2021/03/16 10:57:18;;;;;;;0.10;0.10;;;13.70;68.90;;;;;;4179717;28;20045;-43
2021/03/16 10:59:40;;;;;;;0.00;0.00;;;13.60;68.70;;;;;;4189295;28;20123;-43
2021/03/16 11:02:01;;;;;;;0.00;0.00;;;13.60;68.40;;;;;;4192452;28;20098;-44
2021/03/16 11:04:22;;;;;;;0.00;0.00;;;13.70;68.40;;;;;;4195950;28;20105;-49
2021/03/16 11:06:43;;;;;;;0.00;0.00;;;13.70;68.30;;;;;;4194893;28;20048;-46
2021/03/16 11:09:05;;;;;;;0.08;0.08;;;13.70;68.40;;;;;;4195490;28;20048;-49
2021/03/16 11:11:26;;;;;;;0.00;0.00;;;13.70;68.60;;;;;;4195545;28;20045;-48
2021/03/16 11:13:47;;;;;;;0.00;0.00;;;13.70;69.00;;;;;;4196052;28;20137;-50
2021/03/16 11:16:08;;;;;;;2.15;1.10;;;13.70;68.90;;;;;;4195217;28;20059;-44
2021/03/16 11:18:29;;;;;;;0.00;0.00;;;13.70;68.70;;;;;;4195439;28;20056;-45
2021/03/16 11:20:51;;;;;;;;;;;13.70;68.90;;;;;;4196022;28;20448;-45
2021/03/16 11:23:12;;;;;;;0.00;0.00;;;13.70;69.10;;;;;;4179455;28;20016;-44
2021/03/16 11:25:33;;;;;;;0.00;0.00;;;13.70;69.30;;;;;;4179188;28;20060;-46
2021/03/16 11:27:55;;;;;;;0.25;0.25;;;13.70;69.40;;;;;;4178671;28;20053;-46
2021/03/16 11:30:17;;;;;;;0.00;0.00;;;13.70;69.30;;;;;;4179226;28;20350;-44
2021/03/16 11:32:37;;;;;;;1.55;0.28;;;13.80;69.20;;;;;;4194320;28;20102;-45
2021/03/16 11:35:18;;;;;;;0.00;0.00;;;13.80;69.10;;;;;;4195184;28;20449;-44
2021/03/16 11:37:58;;;;;;;0.70;0.70;;;13.80;69.10;;;;;;4194938;28;20051;-44
2021/03/16 11:40:38;;;;;;;0.45;0.45;;;13.80;69.10;;;;;;4186866;28;20052;-43
2021/03/16 11:43:18;;;;;;;0.10;0.10;;;13.80;69.20;;;;;;4195518;28;20169;-43
2021/03/16 11:45:58;;;;;;;0.00;0.00;;;13.80;69.10;;;;;;4195466;28;20083;-45
2021/03/16 11:48:38;;;;;;;0.00;0.00;;;13.80;69.10;;;;;;4178953;28;20096;-43
2021/03/16 11:51:18;;;;;;;0.32;0.20;;;13.80;69.10;;;;;;4178843;28;20136;-43
2021/03/16 11:53:58;;;;;;;0.00;0.00;;;13.80;69.10;;;;;;4192356;28;20074;-44
2021/03/16 11:56:39;;;;;;;0.00;0.00;;;13.80;69.00;;;;;;4194941;28;20052;-43
2021/03/16 11:59:19;;;;;;;0.22;0.22;;;13.80;69.00;;;;;;4195359;28;20063;-44
2021/03/16 12:01:58;;;;;;;0.10;0.10;;;13.80;69.10;;;;;;4195325;28;20056;-44
2021/03/16 12:04:38;;;;;;;1.45;1.35;;;13.80;69.20;;;;;;4195503;28;20052;-44
2021/03/16 12:07:19;;;;;;;0.00;0.00;;;13.90;69.40;;;;;;4195309;28;20139;-46
2021/03/16 12:09:59;;;;;;;0.00;0.00;;;13.90;69.50;;;;;;4195373;28;20567;-43
2021/03/16 12:12:40;;;;;;;0.00;0.00;;;13.90;69.50;;;;;;4195182;28;20334;-44
2021/03/16 12:15:21;;;;;;;0.00;0.00;;;13.90;69.50;;;;;;4195310;28;20049;-44
2021/03/16 12:18:01;;;;;;;0.00;0.00;;;14.00;69.40;;;;;;4195383;28;20084;-45
2021/03/16 12:20:41;;;;;;;0.00;0.00;;;14.00;69.30;;;;;;4195243;28;20059;-43
2021/03/16 12:23:21;;;;;;;0.00;0.00;;;14.00;69.20;;;;;;4195136;28;20101;-44
2021/03/16 12:26:02;;;;;;;0.00;0.00;;;14.00;69.20;;;;;;4195256;28;20063;-48
2021/03/16 12:28:44;;;;;;;0.00;0.00;;;14.00;69.30;;;;;;4195295;28;20064;-50
2021/03/16 12:31:25;;;;;;;0.00;0.00;;;14.10;69.40;;;;;;4195012;28;20048;-43
2021/03/16 12:34:05;;;;;;;0.00;0.00;;;14.10;69.60;;;;;;4195309;28;20053;-45
2021/03/16 12:36:46;;;;;;;0.00;0.00;;;14.10;69.60;;;;;;4194818;28;20143;-44
2021/03/16 12:39:26;;;;;;;0.00;0.00;;;14.10;69.60;;;;;;4196965;28;20075;-46
2021/03/16 12:42:06;;;;;;;0.00;0.00;;;14.10;69.50;;;;;;4198564;28;20498;-43
2021/03/16 12:44:47;;;;;;;0.00;0.00;;;14.10;69.50;;;;;;4198350;28;20056;-44
2021/03/16 12:47:27;;;;;;;0.00;0.00;;;14.10;69.60;;;;;;4198170;28;20102;-44
2021/03/16 12:50:08;;;;;;;0.00;0.00;;;14.10;69.50;;;;;;4181614;28;20131;-44
2021/03/16 12:52:47;;;;;;;0.03;0.03;;;14.10;69.30;;;;;;4181597;28;20045;-45
2021/03/16 12:55:27;;;;;;;0.00;0.00;;;14.10;69.30;;;;;;4181439;28;20431;-45
2021/03/16 12:58:07;;;;;;;0.00;0.00;;;14.10;69.30;;;;;;4181658;28;20423;-43
2021/03/16 13:00:49;;;;;;;0.00;0.00;;;14.10;69.20;;;;;;4181464;28;20053;-44
2021/03/16 13:03:29;;;;;;;;;;;14.10;69.10;;;;;;4181937;28;20048;-44
2021/03/16 13:06:09;;;;;;;0.00;0.00;;;14.10;69.00;;;;;;4181426;28;19932;-44
2021/03/16 13:08:49;;;;;;;0.00;0.00;;;14.10;69.00;;;;;;4181438;28;20056;-44
2021/03/16 13:11:29;;;;;;;0.20;0.20;;;14.10;68.90;;;;;;4181376;28;20053;-45
2021/03/16 13:14:11;;;;;;;0.00;0.00;;;14.10;69.10;;;;;;4181394;28;20045;-45
2021/03/16 13:16:52;;;;;;;0.00;0.00;;;14.10;69.10;;;;;;4181257;28;20048;-44
2021/03/16 13:19:33;;;;;;;0.00;0.00;;;14.20;69.30;;;;;;4181424;28;20079;-44
2021/03/16 13:22:13;;;;;;;0.00;0.00;;;14.10;69.10;;;;;;4181263;28;20056;-45
2021/03/16 13:24:53;;;;;;;0.10;0.10;;;14.20;69.10;;;;;;4181039;28;20052;-43
2021/03/16 13:27:33;;;;;;;0.35;0.35;;;14.20;69.00;;;;;;4181123;28;20059;-44
2021/03/16 13:30:14;;;;;;;0.00;0.00;;;14.20;69.10;;;;;;4181135;28;20519;-43
2021/03/16 13:32:54;;;;;;;0.00;0.00;;;14.20;68.90;;;;;;4181183;28;20041;-43